sensor_id;sensor_type;location;lat;lon;timestamp;P1;durP1;ratioP1;P2;durP2;ratioP2
64500;SDS011;50874;24.150;-110.320;2023-01-29T00:02:10;17.33;;;2.35;;
64500;SDS011;50874;24.150;-110.320;2023-01-29T00:04:37;16.35;;;1.92;;
64500;SDS011;50874;24.150;-110.320;2023-01-29T00:07:03;19.60;;;2.25;;
64500;SDS011;50874;24.150;-110.320;2023-01-29T00:09:30;15.65;;;2.35;;
64500;SDS011;50874;24.150;-110.320;2023-01-29T00:11:56;11.27;;;1.80;;
64500;SDS011;50874;24.150;-110.320;2023-01-29T00:14:23;8.93;;;1.95;;
64500;SDS011;50874;24.150;-110.320;2023-01-29T00:16:51;10.45;;;2.08;;
64500;SDS011;50874;24.150;-110.320;2023-01-29T00:19:18;18.17;;;2.83;;
64500;SDS011;50874;24.150;-110.320;2023-01-29T00:21:44;9.57;;;1.40;;
64500;SDS011;50874;24.150;-110.320;2023-01-29T00:24:11;12.15;;;2.00;;
64500;SDS011;50874;24.150;-110.320;2023-01-29T00:26:38;25.45;;;3.10;;
64500;SDS011;50874;24.150;-110.320;2023-01-29T00:29:05;43.40;;;5.03;;
64500;SDS011;50874;24.150;-110.320;2023-01-29T00:31:31;13.10;;;2.53;;
64500;SDS011;50874;24.150;-110.320;2023-01-29T00:33:58;11.77;;;1.88;;
64500;SDS011;50874;24.150;-110.320;2023-01-29T00:36:24;9.25;;;2.05;;
64500;SDS011;50874;24.150;-110.320;2023-01-29T00:38:54;19.75;;;2.10;;
64500;SDS011;50874;24.150;-110.320;2023-01-29T00:41:27;6.60;;;2.20;;
64500;SDS011;50874;24.150;-110.320;2023-01-29T00:44:14;6.72;;;1.90;;
64500;SDS011;50874;24.150;-110.320;2023-01-29T00:47:00;7.97;;;1.58;;
64500;SDS011;50874;24.150;-110.320;2023-01-29T00:49:27;6.53;;;1.95;;
64500;SDS011;50874;24.150;-110.320;2023-01-29T00:51:57;10.23;;;2.05;;
64500;SDS011;50874;24.150;-110.320;2023-01-29T00:54:41;12.00;;;1.90;;
64500;SDS011;50874;24.150;-110.320;2023-01-29T00:57:08;7.78;;;2.17;;
64500;SDS011;50874;24.150;-110.320;2023-01-29T00:59:34;10.95;;;2.08;;
64500;SDS011;50874;24.150;-110.320;2023-01-29T01:02:01;7.65;;;1.60;;
64500;SDS011;50874;24.150;-110.320;2023-01-29T01:04:45;11.02;;;2.15;;
64500;SDS011;50874;24.150;-110.320;2023-01-29T01:07:12;21.38;;;2.60;;
64500;SDS011;50874;24.150;-110.320;2023-01-29T01:09:38;15.70;;;2.15;;
64500;SDS011;50874;24.150;-110.320;2023-01-29T01:12:23;8.88;;;1.98;;
64500;SDS011;50874;24.150;-110.320;2023-01-29T01:14:49;10.88;;;2.17;;
64500;SDS011;50874;24.150;-110.320;2023-01-29T01:17:16;16.00;;;2.78;;
64500;SDS011;50874;24.150;-110.320;2023-01-29T01:19:42;11.63;;;2.08;;
64500;SDS011;50874;24.150;-110.320;2023-01-29T01:22:09;20.13;;;3.33;;
64500;SDS011;50874;24.150;-110.320;2023-01-29T01:24:36;10.00;;;2.28;;
64500;SDS011;50874;24.150;-110.320;2023-01-29T01:27:02;15.48;;;2.80;;
64500;SDS011;50874;24.150;-110.320;2023-01-29T01:29:29;11.50;;;2.00;;
64500;SDS011;50874;24.150;-110.320;2023-01-29T01:31:56;7.28;;;2.22;;
64500;SDS011;50874;24.150;-110.320;2023-01-29T01:34:22;20.30;;;2.60;;
64500;SDS011;50874;24.150;-110.320;2023-01-29T01:36:51;14.50;;;2.97;;
64500;SDS011;50874;24.150;-110.320;2023-01-29T01:39:20;9.50;;;1.80;;
64500;SDS011;50874;24.150;-110.320;2023-01-29T01:41:47;13.82;;;2.60;;
64500;SDS011;50874;24.150;-110.320;2023-01-29T01:47:18;13.02;;;2.33;;
64500;SDS011;50874;24.150;-110.320;2023-01-29T01:49:49;11.30;;;2.00;;
64500;SDS011;50874;24.150;-110.320;2023-01-29T01:52:17;15.98;;;3.03;;
64500;SDS011;50874;24.150;-110.320;2023-01-29T01:54:44;13.52;;;1.80;;
64500;SDS011;50874;24.150;-110.320;2023-01-29T01:57:13;13.77;;;3.13;;
64500;SDS011;50874;24.150;-110.320;2023-01-29T01:59:45;9.40;;;2.15;;
64500;SDS011;50874;24.150;-110.320;2023-01-29T02:02:16;9.02;;;2.00;;
64500;SDS011;50874;24.150;-110.320;2023-01-29T02:05:01;11.05;;;2.55;;
64500;SDS011;50874;24.150;-110.320;2023-01-29T02:07:46;13.38;;;2.63;;
64500;SDS011;50874;24.150;-110.320;2023-01-29T02:10:38;16.25;;;2.10;;
64500;SDS011;50874;24.150;-110.320;2023-01-29T02:13:09;15.70;;;2.67;;
64500;SDS011;50874;24.150;-110.320;2023-01-29T02:15:37;15.00;;;2.72;;
64500;SDS011;50874;24.150;-110.320;2023-01-29T02:18:06;30.15;;;3.30;;
64500;SDS011;50874;24.150;-110.320;2023-01-29T02:20:33;14.77;;;3.08;;
64500;SDS011;50874;24.150;-110.320;2023-01-29T02:42:00;18.33;;;2.67;;
64500;SDS011;50874;24.150;-110.320;2023-01-29T02:44:44;26.35;;;2.92;;
64500;SDS011;50874;24.150;-110.320;2023-01-29T02:49:47;14.13;;;2.05;;
64500;SDS011;50874;24.150;-110.320;2023-01-29T02:52:43;17.83;;;3.60;;
64500;SDS011;50874;24.150;-110.320;2023-01-29T02:58:03;21.67;;;3.45;;
64500;SDS011;50874;24.150;-110.320;2023-01-29T03:00:50;24.13;;;3.63;;
64500;SDS011;50874;24.150;-110.320;2023-01-29T03:03:31;25.52;;;3.80;;
64500;SDS011;50874;24.150;-110.320;2023-01-29T03:06:07;16.90;;;2.80;;
64500;SDS011;50874;24.150;-110.320;2023-01-29T03:08:51;24.42;;;3.45;;
64500;SDS011;50874;24.150;-110.320;2023-01-29T03:11:22;21.05;;;3.45;;
64500;SDS011;50874;24.150;-110.320;2023-01-29T03:13:52;20.40;;;4.47;;
64500;SDS011;50874;24.150;-110.320;2023-01-29T03:16:50;23.27;;;3.00;;
64500;SDS011;50874;24.150;-110.320;2023-01-29T03:19:35;24.55;;;4.40;;
64500;SDS011;50874;24.150;-110.320;2023-01-29T03:22:05;26.33;;;6.90;;
64500;SDS011;50874;24.150;-110.320;2023-01-29T03:27:55;24.75;;;5.10;;
64500;SDS011;50874;24.150;-110.320;2023-01-29T03:30:44;15.95;;;4.03;;
64500;SDS011;50874;24.150;-110.320;2023-01-29T03:33:38;24.05;;;3.88;;
64500;SDS011;50874;24.150;-110.320;2023-01-29T03:36:22;31.40;;;3.67;;
64500;SDS011;50874;24.150;-110.320;2023-01-29T03:39:05;14.07;;;2.90;;
64500;SDS011;50874;24.150;-110.320;2023-01-29T03:41:34;16.02;;;3.60;;
64500;SDS011;50874;24.150;-110.320;2023-01-29T03:44:14;17.40;;;2.58;;
64500;SDS011;50874;24.150;-110.320;2023-01-29T03:47:11;20.77;;;3.15;;
64500;SDS011;50874;24.150;-110.320;2023-01-29T03:52:20;20.65;;;3.20;;
64500;SDS011;50874;24.150;-110.320;2023-01-29T03:57:54;11.38;;;3.00;;
64500;SDS011;50874;24.150;-110.320;2023-01-29T04:00:55;14.00;;;2.75;;
64500;SDS011;50874;24.150;-110.320;2023-01-29T04:03:33;15.35;;;2.90;;
64500;SDS011;50874;24.150;-110.320;2023-01-29T04:08:40;10.10;;;2.00;;
64500;SDS011;50874;24.150;-110.320;2023-01-29T04:11:41;22.17;;;3.13;;
64500;SDS011;50874;24.150;-110.320;2023-01-29T04:14:12;21.35;;;3.10;;
64500;SDS011;50874;24.150;-110.320;2023-01-29T04:16:41;17.85;;;3.45;;
64500;SDS011;50874;24.150;-110.320;2023-01-29T04:19:12;7.35;;;2.45;;
64500;SDS011;50874;24.150;-110.320;2023-01-29T04:21:39;14.07;;;2.63;;
64500;SDS011;50874;24.150;-110.320;2023-01-29T04:24:06;21.40;;;3.00;;
64500;SDS011;50874;24.150;-110.320;2023-01-29T04:29:45;51.90;;;5.80;;
64500;SDS011;50874;24.150;-110.320;2023-01-29T04:32:27;18.33;;;2.17;;
64500;SDS011;50874;24.150;-110.320;2023-01-29T04:35:13;13.80;;;2.33;;
64500;SDS011;50874;24.150;-110.320;2023-01-29T04:38:45;17.15;;;3.30;;
64500;SDS011;50874;24.150;-110.320;2023-01-29T04:41:01;21.05;;;2.75;;
64500;SDS011;50874;24.150;-110.320;2023-01-29T04:43:42;10.98;;;2.90;;
64500;SDS011;50874;24.150;-110.320;2023-01-29T04:49:14;15.90;;;2.65;;
64500;SDS011;50874;24.150;-110.320;2023-01-29T04:52:05;20.42;;;2.47;;
64500;SDS011;50874;24.150;-110.320;2023-01-29T04:57:55;18.50;;;2.78;;
64500;SDS011;50874;24.150;-110.320;2023-01-29T05:00:53;20.05;;;2.70;;
64500;SDS011;50874;24.150;-110.320;2023-01-29T05:03:20;18.63;;;3.15;;
64500;SDS011;50874;24.150;-110.320;2023-01-29T05:05:50;18.83;;;3.38;;
64500;SDS011;50874;24.150;-110.320;2023-01-29T05:08:19;12.43;;;3.03;;
64500;SDS011;50874;24.150;-110.320;2023-01-29T05:10:49;18.38;;;3.33;;
64500;SDS011;50874;24.150;-110.320;2023-01-29T05:13:18;18.98;;;3.58;;
64500;SDS011;50874;24.150;-110.320;2023-01-29T05:15:48;16.27;;;2.67;;
64500;SDS011;50874;24.150;-110.320;2023-01-29T05:18:18;19.90;;;3.60;;
64500;SDS011;50874;24.150;-110.320;2023-01-29T05:20:45;15.90;;;2.85;;
64500;SDS011;50874;24.150;-110.320;2023-01-29T05:23:16;37.13;;;3.60;;
64500;SDS011;50874;24.150;-110.320;2023-01-29T05:25:43;22.55;;;2.83;;
64500;SDS011;50874;24.150;-110.320;2023-01-29T05:28:11;24.48;;;3.25;;
64500;SDS011;50874;24.150;-110.320;2023-01-29T05:30:44;11.15;;;2.80;;
64500;SDS011;50874;24.150;-110.320;2023-01-29T05:35:41;18.63;;;2.75;;
64500;SDS011;50874;24.150;-110.320;2023-01-29T05:38:08;17.92;;;3.53;;
64500;SDS011;50874;24.150;-110.320;2023-01-29T05:40:35;16.00;;;3.70;;
64500;SDS011;50874;24.150;-110.320;2023-01-29T05:43:02;14.13;;;2.53;;
64500;SDS011;50874;24.150;-110.320;2023-01-29T05:45:30;23.27;;;4.43;;
64500;SDS011;50874;24.150;-110.320;2023-01-29T05:47:57;20.00;;;2.67;;
64500;SDS011;50874;24.150;-110.320;2023-01-29T05:50:25;16.83;;;3.03;;
64500;SDS011;50874;24.150;-110.320;2023-01-29T05:52:58;21.27;;;2.60;;
64500;SDS011;50874;24.150;-110.320;2023-01-29T05:55:26;22.83;;;2.92;;
64500;SDS011;50874;24.150;-110.320;2023-01-29T05:57:56;31.27;;;4.07;;
64500;SDS011;50874;24.150;-110.320;2023-01-29T06:00:23;16.73;;;3.38;;
64500;SDS011;50874;24.150;-110.320;2023-01-29T06:02:49;17.30;;;2.78;;
64500;SDS011;50874;24.150;-110.320;2023-01-29T06:05:16;15.27;;;3.20;;
64500;SDS011;50874;24.150;-110.320;2023-01-29T06:07:42;26.15;;;4.72;;
64500;SDS011;50874;24.150;-110.320;2023-01-29T06:10:12;33.03;;;2.60;;
64500;SDS011;50874;24.150;-110.320;2023-01-29T06:12:40;26.30;;;7.65;;
64500;SDS011;50874;24.150;-110.320;2023-01-29T06:15:07;23.75;;;7.78;;
64500;SDS011;50874;24.150;-110.320;2023-01-29T06:17:35;47.33;;;11.23;;
64500;SDS011;50874;24.150;-110.320;2023-01-29T06:20:02;22.98;;;7.32;;
64500;SDS011;50874;24.150;-110.320;2023-01-29T06:22:29;23.35;;;5.05;;
64500;SDS011;50874;24.150;-110.320;2023-01-29T06:24:57;44.58;;;6.75;;
64500;SDS011;50874;24.150;-110.320;2023-01-29T06:27:24;42.50;;;6.18;;
64500;SDS011;50874;24.150;-110.320;2023-01-29T06:29:50;35.40;;;6.05;;
64500;SDS011;50874;24.150;-110.320;2023-01-29T06:32:17;32.28;;;4.50;;
64500;SDS011;50874;24.150;-110.320;2023-01-29T06:34:43;29.25;;;5.07;;
64500;SDS011;50874;24.150;-110.320;2023-01-29T06:37:10;15.18;;;4.43;;
64500;SDS011;50874;24.150;-110.320;2023-01-29T06:39:36;29.60;;;4.93;;
64500;SDS011;50874;24.150;-110.320;2023-01-29T06:42:03;34.60;;;5.47;;
64500;SDS011;50874;24.150;-110.320;2023-01-29T06:44:29;29.88;;;6.70;;
64500;SDS011;50874;24.150;-110.320;2023-01-29T06:46:56;32.15;;;5.85;;
64500;SDS011;50874;24.150;-110.320;2023-01-29T06:49:22;43.85;;;5.72;;
64500;SDS011;50874;24.150;-110.320;2023-01-29T06:51:49;39.67;;;6.03;;
64500;SDS011;50874;24.150;-110.320;2023-01-29T06:54:15;31.90;;;5.25;;
64500;SDS011;50874;24.150;-110.320;2023-01-29T06:56:42;43.35;;;4.63;;
64500;SDS011;50874;24.150;-110.320;2023-01-29T06:59:09;30.30;;;4.45;;
64500;SDS011;50874;24.150;-110.320;2023-01-29T07:01:39;25.05;;;4.18;;
64500;SDS011;50874;24.150;-110.320;2023-01-29T07:04:12;29.55;;;5.50;;
64500;SDS011;50874;24.150;-110.320;2023-01-29T07:06:38;38.38;;;4.05;;
64500;SDS011;50874;24.150;-110.320;2023-01-29T07:09:05;30.88;;;4.70;;
64500;SDS011;50874;24.150;-110.320;2023-01-29T07:11:36;41.55;;;5.07;;
64500;SDS011;50874;24.150;-110.320;2023-01-29T07:14:02;40.13;;;6.85;;
64500;SDS011;50874;24.150;-110.320;2023-01-29T07:16:29;44.08;;;4.85;;
64500;SDS011;50874;24.150;-110.320;2023-01-29T07:18:56;26.38;;;3.92;;
64500;SDS011;50874;24.150;-110.320;2023-01-29T07:21:22;39.45;;;4.88;;
64500;SDS011;50874;24.150;-110.320;2023-01-29T07:23:49;20.35;;;3.05;;
64500;SDS011;50874;24.150;-110.320;2023-01-29T07:26:16;24.17;;;3.65;;
64500;SDS011;50874;24.150;-110.320;2023-01-29T07:28:42;29.25;;;3.90;;
64500;SDS011;50874;24.150;-110.320;2023-01-29T07:31:10;20.88;;;2.83;;
64500;SDS011;50874;24.150;-110.320;2023-01-29T07:33:38;26.90;;;3.95;;
64500;SDS011;50874;24.150;-110.320;2023-01-29T07:36:07;22.52;;;3.67;;
64500;SDS011;50874;24.150;-110.320;2023-01-29T07:38:35;20.92;;;3.63;;
64500;SDS011;50874;24.150;-110.320;2023-01-29T07:41:01;36.35;;;4.20;;
64500;SDS011;50874;24.150;-110.320;2023-01-29T07:43:28;33.38;;;4.35;;
64500;SDS011;50874;24.150;-110.320;2023-01-29T07:45:54;32.85;;;4.00;;
64500;SDS011;50874;24.150;-110.320;2023-01-29T07:48:21;21.23;;;3.30;;
64500;SDS011;50874;24.150;-110.320;2023-01-29T07:50:54;26.60;;;3.55;;
64500;SDS011;50874;24.150;-110.320;2023-01-29T07:53:21;18.65;;;3.15;;
64500;SDS011;50874;24.150;-110.320;2023-01-29T07:55:47;34.28;;;3.38;;
64500;SDS011;50874;24.150;-110.320;2023-01-29T07:58:14;21.17;;;3.38;;
64500;SDS011;50874;24.150;-110.320;2023-01-29T08:00:40;22.92;;;3.03;;
64500;SDS011;50874;24.150;-110.320;2023-01-29T08:03:14;28.15;;;3.70;;
64500;SDS011;50874;24.150;-110.320;2023-01-29T08:05:43;29.65;;;4.18;;
64500;SDS011;50874;24.150;-110.320;2023-01-29T08:08:09;18.52;;;3.40;;
64500;SDS011;50874;24.150;-110.320;2023-01-29T08:10:37;21.33;;;3.55;;
64500;SDS011;50874;24.150;-110.320;2023-01-29T08:13:04;19.95;;;3.53;;
64500;SDS011;50874;24.150;-110.320;2023-01-29T08:15:32;11.32;;;3.28;;
64500;SDS011;50874;24.150;-110.320;2023-01-29T08:18:02;28.13;;;3.85;;
64500;SDS011;50874;24.150;-110.320;2023-01-29T08:20:28;48.65;;;3.92;;
64500;SDS011;50874;24.150;-110.320;2023-01-29T08:23:02;22.10;;;3.42;;
64500;SDS011;50874;24.150;-110.320;2023-01-29T08:25:30;24.17;;;4.32;;
64500;SDS011;50874;24.150;-110.320;2023-01-29T08:27:57;21.33;;;3.47;;
64500;SDS011;50874;24.150;-110.320;2023-01-29T08:30:26;32.42;;;3.67;;
64500;SDS011;50874;24.150;-110.320;2023-01-29T08:32:54;22.08;;;4.00;;
64500;SDS011;50874;24.150;-110.320;2023-01-29T08:35:20;17.77;;;3.13;;
64500;SDS011;50874;24.150;-110.320;2023-01-29T08:37:54;15.63;;;2.95;;
64500;SDS011;50874;24.150;-110.320;2023-01-29T08:40:23;34.13;;;3.42;;
64500;SDS011;50874;24.150;-110.320;2023-01-29T08:42:50;29.27;;;4.45;;
64500;SDS011;50874;24.150;-110.320;2023-01-29T08:45:17;32.78;;;3.88;;
64500;SDS011;50874;24.150;-110.320;2023-01-29T08:47:44;20.10;;;3.00;;
64500;SDS011;50874;24.150;-110.320;2023-01-29T08:50:14;18.45;;;3.13;;
64500;SDS011;50874;24.150;-110.320;2023-01-29T08:52:42;15.38;;;3.80;;
64500;SDS011;50874;24.150;-110.320;2023-01-29T08:55:09;24.52;;;3.10;;
64500;SDS011;50874;24.150;-110.320;2023-01-29T08:57:36;20.38;;;3.42;;
64500;SDS011;50874;24.150;-110.320;2023-01-29T09:00:04;21.70;;;3.17;;
64500;SDS011;50874;24.150;-110.320;2023-01-29T09:02:31;20.85;;;3.30;;
64500;SDS011;50874;24.150;-110.320;2023-01-29T09:04:58;18.60;;;3.47;;
64500;SDS011;50874;24.150;-110.320;2023-01-29T09:07:24;20.35;;;3.03;;
64500;SDS011;50874;24.150;-110.320;2023-01-29T09:09:51;10.32;;;2.60;;
64500;SDS011;50874;24.150;-110.320;2023-01-29T09:12:17;9.50;;;2.38;;
64500;SDS011;50874;24.150;-110.320;2023-01-29T09:14:44;31.70;;;3.70;;
64500;SDS011;50874;24.150;-110.320;2023-01-29T09:17:10;13.10;;;3.65;;
64500;SDS011;50874;24.150;-110.320;2023-01-29T09:19:36;13.35;;;3.28;;
64500;SDS011;50874;24.150;-110.320;2023-01-29T09:22:03;18.35;;;2.80;;
64500;SDS011;50874;24.150;-110.320;2023-01-29T09:24:29;16.02;;;2.15;;
64500;SDS011;50874;24.150;-110.320;2023-01-29T09:26:57;17.98;;;2.83;;
64500;SDS011;50874;24.150;-110.320;2023-01-29T09:29:23;15.95;;;2.92;;
64500;SDS011;50874;24.150;-110.320;2023-01-29T09:31:49;15.00;;;2.63;;
64500;SDS011;50874;24.150;-110.320;2023-01-29T09:34:16;19.30;;;3.65;;
64500;SDS011;50874;24.150;-110.320;2023-01-29T09:36:43;15.57;;;2.83;;
64500;SDS011;50874;24.150;-110.320;2023-01-29T09:39:09;21.52;;;3.15;;
64500;SDS011;50874;24.150;-110.320;2023-01-29T09:47:01;13.43;;;2.88;;
64500;SDS011;50874;24.150;-110.320;2023-01-29T09:49:33;20.23;;;2.97;;
64500;SDS011;50874;24.150;-110.320;2023-01-29T09:52:23;14.50;;;3.00;;
64500;SDS011;50874;24.150;-110.320;2023-01-29T09:57:45;13.77;;;3.30;;
64500;SDS011;50874;24.150;-110.320;2023-01-29T10:01:07;11.27;;;2.83;;
64500;SDS011;50874;24.150;-110.320;2023-01-29T10:03:42;12.57;;;3.28;;
64500;SDS011;50874;24.150;-110.320;2023-01-29T10:11:53;22.83;;;3.05;;
64500;SDS011;50874;24.150;-110.320;2023-01-29T10:23:05;14.93;;;2.85;;
64500;SDS011;50874;24.150;-110.320;2023-01-29T10:25:49;21.38;;;5.18;;
64500;SDS011;50874;24.150;-110.320;2023-01-29T10:28:18;18.83;;;3.03;;
64500;SDS011;50874;24.150;-110.320;2023-01-29T10:30:57;12.82;;;3.25;;
64500;SDS011;50874;24.150;-110.320;2023-01-29T10:36:02;13.85;;;3.15;;
64500;SDS011;50874;24.150;-110.320;2023-01-29T10:41:39;12.88;;;2.90;;
64500;SDS011;50874;24.150;-110.320;2023-01-29T10:47:06;18.65;;;3.67;;
64500;SDS011;50874;24.150;-110.320;2023-01-29T10:55:43;18.23;;;4.20;;
64500;SDS011;50874;24.150;-110.320;2023-01-29T11:01:02;19.23;;;3.95;;
64500;SDS011;50874;24.150;-110.320;2023-01-29T11:03:30;25.92;;;4.35;;
64500;SDS011;50874;24.150;-110.320;2023-01-29T11:11:21;27.23;;;4.47;;
64500;SDS011;50874;24.150;-110.320;2023-01-29T11:17:21;19.35;;;3.65;;
64500;SDS011;50874;24.150;-110.320;2023-01-29T11:19:49;17.83;;;4.32;;
64500;SDS011;50874;24.150;-110.320;2023-01-29T11:22:18;29.25;;;5.03;;
64500;SDS011;50874;24.150;-110.320;2023-01-29T11:30:14;21.77;;;4.18;;
64500;SDS011;50874;24.150;-110.320;2023-01-29T11:32:41;16.40;;;3.75;;
64500;SDS011;50874;24.150;-110.320;2023-01-29T11:37:41;21.17;;;4.05;;
64500;SDS011;50874;24.150;-110.320;2023-01-29T11:42:45;12.15;;;4.18;;
64500;SDS011;50874;24.150;-110.320;2023-01-29T11:47:56;14.10;;;4.10;;
64500;SDS011;50874;24.150;-110.320;2023-01-29T11:50:30;13.98;;;4.13;;
64500;SDS011;50874;24.150;-110.320;2023-01-29T11:55:29;17.00;;;3.47;;
64500;SDS011;50874;24.150;-110.320;2023-01-29T11:58:00;11.30;;;2.97;;
64500;SDS011;50874;24.150;-110.320;2023-01-29T12:05:37;16.17;;;2.97;;
64500;SDS011;50874;24.150;-110.320;2023-01-29T12:08:13;10.98;;;3.85;;
64500;SDS011;50874;24.150;-110.320;2023-01-29T12:10:42;18.75;;;3.33;;
64500;SDS011;50874;24.150;-110.320;2023-01-29T12:15:39;9.95;;;2.60;;
64500;SDS011;50874;24.150;-110.320;2023-01-29T12:21:03;14.43;;;2.38;;
64500;SDS011;50874;24.150;-110.320;2023-01-29T12:23:40;19.67;;;3.15;;
64500;SDS011;50874;24.150;-110.320;2023-01-29T12:26:38;15.73;;;3.95;;
64500;SDS011;50874;24.150;-110.320;2023-01-29T12:37:16;15.50;;;3.28;;
64500;SDS011;50874;24.150;-110.320;2023-01-29T12:39:53;15.23;;;2.53;;
64500;SDS011;50874;24.150;-110.320;2023-01-29T12:42:20;20.08;;;3.28;;
64500;SDS011;50874;24.150;-110.320;2023-01-29T12:45:02;18.50;;;2.95;;
64500;SDS011;50874;24.150;-110.320;2023-01-29T12:47:37;12.50;;;2.80;;
64500;SDS011;50874;24.150;-110.320;2023-01-29T12:50:54;7.43;;;2.47;;
64500;SDS011;50874;24.150;-110.320;2023-01-29T12:55:54;14.68;;;2.42;;
64500;SDS011;50874;24.150;-110.320;2023-01-29T12:58:29;14.50;;;2.25;;
64500;SDS011;50874;24.150;-110.320;2023-01-29T13:01:04;10.25;;;2.33;;
64500;SDS011;50874;24.150;-110.320;2023-01-29T13:07:34;12.98;;;2.20;;
64500;SDS011;50874;24.150;-110.320;2023-01-29T13:09:39;12.55;;;3.20;;
64500;SDS011;50874;24.150;-110.320;2023-01-29T13:12:15;16.48;;;3.08;;
64500;SDS011;50874;24.150;-110.320;2023-01-29T13:14:50;11.35;;;2.97;;
64500;SDS011;50874;24.150;-110.320;2023-01-29T13:22:44;13.38;;;2.50;;
64500;SDS011;50874;24.150;-110.320;2023-01-29T13:25:15;11.15;;;2.85;;
64500;SDS011;50874;24.150;-110.320;2023-01-29T13:27:43;16.90;;;2.67;;
64500;SDS011;50874;24.150;-110.320;2023-01-29T13:30:33;9.02;;;2.58;;
64500;SDS011;50874;24.150;-110.320;2023-01-29T13:33:02;12.20;;;3.00;;
64500;SDS011;50874;24.150;-110.320;2023-01-29T13:35:36;10.63;;;2.95;;
64500;SDS011;50874;24.150;-110.320;2023-01-29T13:38:19;15.07;;;2.92;;
64500;SDS011;50874;24.150;-110.320;2023-01-29T13:40:53;10.23;;;2.40;;
64500;SDS011;50874;24.150;-110.320;2023-01-29T13:43:24;7.47;;;1.80;;
64500;SDS011;50874;24.150;-110.320;2023-01-29T13:45:56;13.85;;;2.40;;
64500;SDS011;50874;24.150;-110.320;2023-01-29T13:48:29;10.98;;;2.65;;
64500;SDS011;50874;24.150;-110.320;2023-01-29T13:50:59;16.17;;;2.50;;
64500;SDS011;50874;24.150;-110.320;2023-01-29T13:53:37;12.68;;;2.13;;
64500;SDS011;50874;24.150;-110.320;2023-01-29T13:58:54;12.13;;;3.08;;
64500;SDS011;50874;24.150;-110.320;2023-01-29T14:07:00;12.60;;;2.00;;
64500;SDS011;50874;24.150;-110.320;2023-01-29T14:12:04;10.75;;;2.42;;
64500;SDS011;50874;24.150;-110.320;2023-01-29T14:17:24;7.82;;;1.95;;
64500;SDS011;50874;24.150;-110.320;2023-01-29T14:19:52;14.85;;;2.15;;
64500;SDS011;50874;24.150;-110.320;2023-01-29T14:22:28;8.15;;;2.22;;
64500;SDS011;50874;24.150;-110.320;2023-01-29T14:24:57;12.35;;;3.45;;
64500;SDS011;50874;24.150;-110.320;2023-01-29T14:27:27;7.43;;;1.83;;
64500;SDS011;50874;24.150;-110.320;2023-01-29T14:29:58;9.13;;;1.88;;
64500;SDS011;50874;24.150;-110.320;2023-01-29T14:32:27;8.27;;;2.00;;
64500;SDS011;50874;24.150;-110.320;2023-01-29T14:35:09;19.85;;;2.28;;
64500;SDS011;50874;24.150;-110.320;2023-01-29T14:37:41;13.57;;;2.47;;
64500;SDS011;50874;24.150;-110.320;2023-01-29T14:53:05;7.25;;;1.83;;
64500;SDS011;50874;24.150;-110.320;2023-01-29T14:58:12;7.55;;;1.70;;
64500;SDS011;50874;24.150;-110.320;2023-01-29T15:00:52;5.70;;;2.10;;
64500;SDS011;50874;24.150;-110.320;2023-01-29T15:03:26;10.13;;;2.50;;
64500;SDS011;50874;24.150;-110.320;2023-01-29T15:06:05;9.93;;;1.85;;
64500;SDS011;50874;24.150;-110.320;2023-01-29T15:08:36;13.32;;;2.42;;
64500;SDS011;50874;24.150;-110.320;2023-01-29T15:11:08;13.25;;;3.08;;
64500;SDS011;50874;24.150;-110.320;2023-01-29T15:16:58;9.65;;;2.05;;
64500;SDS011;50874;24.150;-110.320;2023-01-29T15:19:41;4.45;;;1.45;;
64500;SDS011;50874;24.150;-110.320;2023-01-29T15:22:19;8.93;;;1.92;;
64500;SDS011;50874;24.150;-110.320;2023-01-29T15:25:00;8.82;;;2.50;;
64500;SDS011;50874;24.150;-110.320;2023-01-29T15:27:46;9.93;;;2.33;;
64500;SDS011;50874;24.150;-110.320;2023-01-29T15:30:21;6.25;;;1.73;;
64500;SDS011;50874;24.150;-110.320;2023-01-29T15:32:52;10.85;;;2.33;;
64500;SDS011;50874;24.150;-110.320;2023-01-29T15:38:20;15.20;;;3.38;;
64500;SDS011;50874;24.150;-110.320;2023-01-29T15:45:51;11.52;;;3.08;;
64500;SDS011;50874;24.150;-110.320;2023-01-29T15:48:24;17.88;;;3.13;;
64500;SDS011;50874;24.150;-110.320;2023-01-29T15:50:57;11.57;;;2.33;;
64500;SDS011;50874;24.150;-110.320;2023-01-29T15:53:28;16.80;;;2.85;;
64500;SDS011;50874;24.150;-110.320;2023-01-29T15:56:00;17.65;;;3.10;;
64500;SDS011;50874;24.150;-110.320;2023-01-29T15:58:28;7.05;;;1.15;;
64500;SDS011;50874;24.150;-110.320;2023-01-29T16:00:56;7.70;;;1.42;;
64500;SDS011;50874;24.150;-110.320;2023-01-29T16:03:26;6.15;;;1.50;;
64500;SDS011;50874;24.150;-110.320;2023-01-29T16:05:55;8.23;;;1.50;;
64500;SDS011;50874;24.150;-110.320;2023-01-29T16:08:23;14.55;;;1.63;;
64500;SDS011;50874;24.150;-110.320;2023-01-29T16:10:55;8.50;;;1.40;;
64500;SDS011;50874;24.150;-110.320;2023-01-29T16:13:28;11.73;;;2.17;;
64500;SDS011;50874;24.150;-110.320;2023-01-29T16:16:03;5.32;;;1.48;;
64500;SDS011;50874;24.150;-110.320;2023-01-29T16:18:43;8.07;;;1.10;;
64500;SDS011;50874;24.150;-110.320;2023-01-29T16:24:00;2.33;;;1.13;;
64500;SDS011;50874;24.150;-110.320;2023-01-29T16:26:36;10.13;;;1.30;;
64500;SDS011;50874;24.150;-110.320;2023-01-29T16:29:08;2.30;;;0.82;;
64500;SDS011;50874;24.150;-110.320;2023-01-29T16:31:37;8.80;;;1.88;;
64500;SDS011;50874;24.150;-110.320;2023-01-29T16:34:05;10.32;;;1.50;;
64500;SDS011;50874;24.150;-110.320;2023-01-29T16:36:34;7.25;;;1.45;;
64500;SDS011;50874;24.150;-110.320;2023-01-29T16:39:02;7.28;;;1.50;;
64500;SDS011;50874;24.150;-110.320;2023-01-29T16:41:31;5.50;;;1.58;;
64500;SDS011;50874;24.150;-110.320;2023-01-29T16:44:24;6.90;;;1.17;;
64500;SDS011;50874;24.150;-110.320;2023-01-29T16:52:13;4.25;;;0.60;;
64500;SDS011;50874;24.150;-110.320;2023-01-29T16:54:47;6.40;;;1.23;;
64500;SDS011;50874;24.150;-110.320;2023-01-29T16:57:14;5.70;;;0.95;;
64500;SDS011;50874;24.150;-110.320;2023-01-29T16:59:47;2.83;;;0.77;;
64500;SDS011;50874;24.150;-110.320;2023-01-29T17:02:26;8.40;;;0.85;;
64500;SDS011;50874;24.150;-110.320;2023-01-29T17:05:00;5.18;;;1.25;;
64500;SDS011;50874;24.150;-110.320;2023-01-29T17:07:32;5.57;;;1.27;;
64500;SDS011;50874;24.150;-110.320;2023-01-29T17:10:00;4.43;;;0.85;;
64500;SDS011;50874;24.150;-110.320;2023-01-29T17:12:29;2.15;;;0.80;;
64500;SDS011;50874;24.150;-110.320;2023-01-29T17:14:58;5.25;;;1.17;;
64500;SDS011;50874;24.150;-110.320;2023-01-29T17:17:30;3.58;;;1.17;;
64500;SDS011;50874;24.150;-110.320;2023-01-29T17:20:01;3.63;;;0.95;;
64500;SDS011;50874;24.150;-110.320;2023-01-29T17:22:38;2.58;;;0.85;;
64500;SDS011;50874;24.150;-110.320;2023-01-29T17:25:04;3.58;;;0.90;;
64500;SDS011;50874;24.150;-110.320;2023-01-29T17:27:31;7.43;;;1.63;;
64500;SDS011;50874;24.150;-110.320;2023-01-29T17:29:58;4.53;;;1.10;;
64500;SDS011;50874;24.150;-110.320;2023-01-29T17:32:25;6.50;;;1.35;;
64500;SDS011;50874;24.150;-110.320;2023-01-29T17:34:52;4.40;;;0.82;;
64500;SDS011;50874;24.150;-110.320;2023-01-29T17:37:18;4.90;;;1.02;;
64500;SDS011;50874;24.150;-110.320;2023-01-29T17:39:48;3.25;;;0.80;;